SEKCJA WYDRUKÓW, pokaż »

METAR EPBY 160600Z 25016KT 9999 SCT016 BKN024 06/03 Q0996=

METAR EPGD 160600Z 12007KT 3200 SHRA BKN002 BKN014CB 05/05 Q0991 =

METAR EPKK 160600Z 29011KT 9999 FEW026 09/04 Q1001 =

METAR EPKT 160600Z 30012KT 270V340 CAVOK 05/M00 Q1002 =

METAR EPLB 160600Z 23012KT 9999 SCT028 BKN032 11/10 Q0998 =

METAR EPLL 160600Z 24017KT 9999 FEW025 BKN036 06/01 Q1000 =

METAR EPML 160600Z AUTO 22012KT 190V250 9999 OVC110/// 11/07 Q////=

METAR EPMO 160600Z 25019KT 9999 BKN018 06/04 Q0998 =

METAR EPPO 160600Z 23012KT 9999 SCT019 BKN045 06/02 Q0998 =

METAR EPRA 160600Z 27016KT 9999 BKN021 09/06 Q0999=

METAR EPRZ 160600Z 23008KT CAVOK 11/08 Q1000 =

METAR EPSC 160600Z 23011KT 200V260 9999 BKN014 05/03 Q0995 =

METAR EPSY 160600Z 20011KT 160V220 4500 -RA BR SCT004 BKN006 OVC011
06/05 Q0993=

METAR EPWA 160600Z 26018KT 9999 FEW015 FEW023CB 07/03 Q0998 NOSIG=

METAR EPWR 160600Z 25010KT CAVOK 08/M01 Q1002 =

METAR EPZG 160600Z 23015KT 9999 FEW024 06/03 Q1000 =
 METAR EPBY
Lokalizacja:EPBY Bydgoszcz
Czas:06:00 UTC
Średni kierunek wiatru:250 °
Średnia prędkość wiatru:16 węzłów
Widzialność:10 km i więcej
Pierwsza warstwa chmur:3/8 do 4/8, wysokość podstawy 1600 FT
Druga warstwa chmur:5/8 do 7/8, wysokość podstawy 2400 FT
Temperatura powietrza:6 °C
Temperatura punktu rosy:3 °C
Ciśnienie QNH:996 hPa